createdAt,value
2022-08-22T00:02:14.674Z,2.43
2022-08-22T00:02:43.200Z,1.93
2022-08-22T00:02:49.563Z,2.40
2022-08-22T00:03:03.716Z,2.00
2022-08-22T00:04:52.462Z,2.50
2022-08-22T00:07:32.401Z,2.50
2022-08-22T00:10:05.679Z,2.43
2022-08-22T00:12:41.293Z,2.40
2022-08-22T00:15:31.555Z,2.33
2022-08-22T00:18:11.509Z,2.47
2022-08-22T00:20:43.649Z,2.50
2022-08-22T00:23:17.743Z,2.70
2022-08-22T00:25:55.412Z,2.70
2022-08-22T00:28:29.446Z,2.50
2022-08-22T00:31:00.420Z,2.87
2022-08-22T00:33:40.255Z,2.67
2022-08-22T00:36:20.379Z,2.73
2022-08-22T00:38:54.059Z,2.70
2022-08-22T00:41:34.716Z,2.53
2022-08-22T00:44:18.184Z,2.40
2022-08-22T00:47:11.591Z,2.37
2022-08-22T00:50:02.957Z,2.97
2022-08-22T00:53:15.055Z,2.43
2022-08-22T00:55:55.018Z,2.40
2022-08-22T00:58:57.435Z,2.43
2022-08-22T01:01:33.671Z,2.80
2022-08-22T01:04:29.202Z,2.50
2022-08-22T01:07:09.150Z,2.43
2022-08-22T01:09:47.924Z,2.40
2022-08-22T01:12:30.645Z,3.00
2022-08-22T01:15:02.802Z,2.77
2022-08-22T01:18:24.574Z,2.30
2022-08-22T01:21:20.683Z,2.40
2022-08-22T01:24:24.738Z,2.87
2022-08-22T01:27:34.168Z,2.53
2022-08-22T01:30:22.674Z,2.63
2022-08-22T01:33:24.487Z,2.00
2022-08-22T01:36:26.370Z,2.50
2022-08-22T01:39:07.968Z,2.50
2022-08-22T01:42:05.570Z,2.70
2022-08-22T01:45:02.023Z,2.93
2022-08-22T01:47:38.501Z,2.83
2022-08-22T01:50:18.283Z,2.50
2022-08-22T01:52:51.030Z,2.30
2022-08-22T01:55:31.897Z,2.47
2022-08-22T01:58:02.240Z,2.70
2022-08-22T02:00:35.902Z,2.50
2022-08-22T02:03:13.955Z,2.33
2022-08-22T02:05:55.784Z,2.63
2022-08-22T02:08:31.381Z,2.70
2022-08-22T02:11:05.059Z,3.07
2022-08-22T02:13:47.703Z,2.63
2022-08-22T02:16:24.883Z,3.13
2022-08-22T02:19:19.117Z,2.77
2022-08-22T02:21:51.863Z,2.60
2022-08-22T02:24:27.137Z,2.27
2022-08-22T02:27:09.458Z,2.60
2022-08-22T02:29:47.632Z,2.77
2022-08-22T02:32:22.342Z,2.70
2022-08-22T02:35:01.180Z,2.93
2022-08-22T02:37:37.163Z,2.67
2022-08-22T02:40:14.677Z,2.60
2022-08-22T02:42:48.551Z,2.63
2022-08-22T02:45:28.107Z,2.87
2022-08-22T02:48:05.063Z,2.47
2022-08-22T02:50:41.617Z,2.90
2022-08-22T02:53:15.364Z,2.47
2022-08-22T02:55:57.378Z,2.50
2022-08-22T02:58:37.547Z,2.80
2022-08-22T03:01:34.358Z,2.87
2022-08-22T03:04:26.166Z,2.80
2022-08-22T03:07:13.456Z,2.60
2022-08-22T03:09:49.621Z,2.73
2022-08-22T03:12:28.900Z,2.27
2022-08-22T03:15:04.077Z,3.00
2022-08-22T03:17:35.995Z,2.70
2022-08-22T03:20:09.352Z,3.10
2022-08-22T03:22:44.835Z,2.90
2022-08-22T03:25:22.820Z,3.10
2022-08-22T03:27:56.730Z,2.90
2022-08-22T03:30:33.266Z,2.70
2022-08-22T03:33:16.843Z,3.07
2022-08-22T03:36:00.694Z,2.90
2022-08-22T03:38:47.819Z,3.07
2022-08-22T03:41:40.373Z,3.20
2022-08-22T03:44:47.013Z,3.33
2022-08-22T03:47:49.891Z,2.83
2022-08-22T03:50:40.553Z,3.00
2022-08-22T03:53:30.391Z,3.00
2022-08-22T03:56:35.371Z,3.23
2022-08-22T03:59:33.973Z,2.50
2022-08-22T04:02:44.623Z,2.90
2022-08-22T04:05:56.029Z,3.17
2022-08-22T04:08:56.471Z,3.77
2022-08-22T04:11:53.335Z,3.10
2022-08-22T04:14:39.966Z,2.70
2022-08-22T04:17:33.990Z,4.30
2022-08-22T04:20:27.515Z,3.53
2022-08-22T04:23:19.066Z,3.00
2022-08-22T04:25:51.978Z,3.57
2022-08-22T04:28:23.828Z,3.37
2022-08-22T04:30:58.523Z,3.53
2022-08-22T04:33:31.485Z,3.20
2022-08-22T04:36:03.526Z,3.00
2022-08-22T04:38:37.409Z,3.30
2022-08-22T04:41:10.359Z,3.17
2022-08-22T04:43:42.116Z,3.97
2022-08-22T04:46:18.366Z,3.67
2022-08-22T04:48:53.937Z,3.50
2022-08-22T04:51:28.402Z,2.80
2022-08-22T04:54:12.340Z,2.93
2022-08-22T04:56:51.938Z,3.03
2022-08-22T04:59:20.370Z,2.83
2022-08-22T05:01:55.238Z,3.53
2022-08-22T05:04:28.231Z,3.03
2022-08-22T05:07:02.649Z,3.00
2022-08-22T05:09:35.772Z,3.07
2022-08-22T05:12:08.994Z,3.10
2022-08-22T05:14:42.166Z,2.80
2022-08-22T05:17:17.068Z,3.37
2022-08-22T05:19:51.175Z,2.80
2022-08-22T05:22:22.868Z,2.40
2022-08-22T05:24:56.775Z,4.50
2022-08-22T05:27:26.830Z,3.37
2022-08-22T05:30:02.096Z,3.20
2022-08-22T05:32:37.351Z,3.07
2022-08-22T05:35:06.688Z,2.90
2022-08-22T05:37:40.843Z,3.00
2022-08-22T05:40:15.378Z,3.40
2022-08-22T05:42:44.532Z,2.73
2022-08-22T05:45:16.076Z,3.00
2022-08-22T05:47:48.343Z,3.17
2022-08-22T05:50:20.969Z,3.13
2022-08-22T05:53:02.623Z,3.17
2022-08-22T05:55:34.160Z,3.17
2022-08-22T05:58:30.074Z,3.10
2022-08-22T06:01:06.129Z,3.20
2022-08-22T06:03:40.056Z,3.07
2022-08-22T06:06:15.959Z,3.60
2022-08-22T06:08:49.590Z,2.93
2022-08-22T06:11:22.390Z,2.97
2022-08-22T06:13:57.326Z,3.03
2022-08-22T06:16:35.533Z,3.03
2022-08-22T06:19:18.982Z,3.40
2022-08-22T06:21:50.457Z,2.97
2022-08-22T06:24:23.862Z,2.97
2022-08-22T06:26:54.615Z,3.17
2022-08-22T06:29:37.677Z,2.77
2022-08-22T06:32:14.978Z,2.80
2022-08-22T06:34:47.241Z,2.90
2022-08-22T06:37:21.231Z,3.33
2022-08-22T06:39:53.287Z,3.57
2022-08-22T06:42:25.158Z,2.77
2022-08-22T06:44:58.123Z,3.13
2022-08-22T06:47:29.888Z,3.33
2022-08-22T06:50:03.799Z,3.07
2022-08-22T06:52:35.737Z,3.00
2022-08-22T06:55:07.644Z,2.80
2022-08-22T06:57:43.023Z,3.03
2022-08-22T07:00:15.054Z,2.67
2022-08-22T07:02:45.860Z,3.47
2022-08-22T07:05:20.162Z,4.13
2022-08-22T07:07:48.159Z,5.30
2022-08-22T07:10:17.692Z,3.80
2022-08-22T07:12:48.123Z,3.60
2022-08-22T07:15:23.724Z,3.60
2022-08-22T07:17:58.511Z,3.10
2022-08-22T07:20:29.532Z,3.47
2022-08-22T07:23:01.782Z,2.93
2022-08-22T07:25:31.803Z,3.27
2022-08-22T07:28:16.273Z,3.43
2022-08-22T07:30:55.518Z,3.40
2022-08-22T07:33:42.217Z,3.87
2022-08-22T07:36:27.377Z,3.57
2022-08-22T07:39:11.210Z,2.93
2022-08-22T07:41:50.824Z,3.07
2022-08-22T07:44:22.504Z,3.60
2022-08-22T07:47:00.429Z,3.23
2022-08-22T07:49:32.821Z,3.50
2022-08-22T07:52:07.983Z,3.20
2022-08-22T07:54:39.063Z,3.40
2022-08-22T07:57:09.360Z,3.10
2022-08-22T07:59:43.578Z,2.90
2022-08-22T08:02:15.306Z,3.17
2022-08-22T08:04:44.034Z,2.97
2022-08-22T08:07:17.072Z,3.30
2022-08-22T08:09:50.783Z,3.60
2022-08-22T08:12:21.961Z,3.17
2022-08-22T08:14:54.615Z,3.60
2022-08-22T08:17:28.872Z,3.37
2022-08-22T08:20:03.915Z,3.87
2022-08-22T08:22:34.589Z,3.30
2022-08-22T08:25:04.220Z,3.47
2022-08-22T08:27:53.577Z,3.30
2022-08-22T08:30:25.851Z,3.57
2022-08-22T08:32:57.505Z,3.57
2022-08-22T08:36:02.102Z,3.40
2022-08-22T08:38:36.894Z,3.23
2022-08-22T08:41:37.127Z,3.67
2022-08-22T08:44:20.161Z,3.30
2022-08-22T08:47:08.788Z,3.80
2022-08-22T08:50:03.466Z,4.50
2022-08-22T08:53:06.320Z,3.17
2022-08-22T08:55:48.238Z,3.57
2022-08-22T08:58:34.983Z,3.40
2022-08-22T09:01:21.086Z,3.30
2022-08-22T09:04:40.662Z,3.63
2022-08-22T09:07:45.907Z,3.20
2022-08-22T09:10:33.167Z,3.20
2022-08-22T09:13:19.456Z,3.57
2022-08-22T09:16:05.973Z,3.50
2022-08-22T09:18:48.798Z,2.80
2022-08-22T09:21:53.268Z,3.47
2022-08-22T09:24:51.735Z,2.80
2022-08-22T09:27:30.693Z,3.40
2022-08-22T09:30:08.659Z,3.63
2022-08-22T09:32:47.898Z,3.37
2022-08-22T09:35:24.907Z,3.37
2022-08-22T09:38:14.612Z,3.10
2022-08-22T09:40:47.116Z,3.20
2022-08-22T09:43:21.108Z,3.83
2022-08-22T09:46:02.390Z,3.90
2022-08-22T09:48:38.370Z,3.30
2022-08-22T09:51:33.157Z,3.50
2022-08-22T09:54:31.523Z,3.73
2022-08-22T09:57:18.473Z,3.40
2022-08-22T09:59:55.776Z,2.90
2022-08-22T10:02:34.837Z,3.47
2022-08-22T10:05:10.703Z,3.80
2022-08-22T10:08:02.416Z,3.63
2022-08-22T10:10:50.342Z,3.70
2022-08-22T10:13:30.036Z,3.60
2022-08-22T10:16:06.295Z,3.43
2022-08-22T10:18:52.710Z,3.43
2022-08-22T10:21:31.761Z,3.40
2022-08-22T10:24:07.237Z,3.00
2022-08-22T10:26:43.552Z,3.43
2022-08-22T10:29:39.636Z,3.70
2022-08-22T10:32:20.802Z,2.97
2022-08-22T10:35:00.002Z,3.10
2022-08-22T10:37:33.282Z,3.50
2022-08-22T10:40:06.196Z,3.40
2022-08-22T10:42:37.693Z,3.57
2022-08-22T10:45:35.854Z,3.43
2022-08-22T10:48:31.540Z,3.33
2022-08-22T10:51:28.818Z,3.13
2022-08-22T10:54:24.598Z,3.80
2022-08-22T10:57:02.591Z,3.20
2022-08-22T10:59:41.963Z,3.50
2022-08-22T11:02:42.267Z,3.73
2022-08-22T11:05:28.198Z,3.40
2022-08-22T11:08:21.002Z,3.37
2022-08-22T11:11:15.005Z,3.73
2022-08-22T11:14:02.946Z,3.30
2022-08-22T11:16:47.926Z,3.20
2022-08-22T11:19:39.542Z,3.87
2022-08-22T11:22:18.644Z,3.70
2022-08-22T11:25:28.651Z,3.27
2022-08-22T11:28:33.761Z,3.00
2022-08-22T11:31:07.963Z,3.40
2022-08-22T11:33:46.332Z,3.53
2022-08-22T11:36:37.990Z,3.60
2022-08-22T11:39:22.739Z,3.93
2022-08-22T11:41:59.564Z,4.00
2022-08-22T11:44:32.259Z,3.60
2022-08-22T11:47:09.664Z,4.00
2022-08-22T11:49:51.975Z,3.47
2022-08-22T11:52:37.243Z,3.70
2022-08-22T11:55:19.429Z,3.07
2022-08-22T11:57:53.667Z,3.20
2022-08-22T12:00:32.011Z,3.90
2022-08-22T12:03:36.349Z,3.27
2022-08-22T12:06:29.419Z,3.07
2022-08-22T12:09:24.005Z,3.13
2022-08-22T12:12:06.420Z,2.80
2022-08-22T12:14:42.838Z,3.23
2022-08-22T12:17:55.236Z,3.40
2022-08-22T12:20:34.908Z,3.97
2022-08-22T12:23:43.314Z,3.57
2022-08-22T12:26:25.275Z,3.33
2022-08-22T12:29:15.513Z,3.50
2022-08-22T12:32:26.291Z,3.60
2022-08-22T12:35:27.117Z,3.67
2022-08-22T12:38:04.533Z,3.10
2022-08-22T12:41:09.564Z,3.43
2022-08-22T12:43:50.559Z,3.40
2022-08-22T12:46:28.249Z,3.47
2022-08-22T12:49:10.350Z,2.97
2022-08-22T12:51:50.299Z,3.63
2022-08-22T12:54:55.662Z,2.70
2022-08-22T12:57:34.524Z,3.30
2022-08-22T13:00:22.725Z,3.30
2022-08-22T13:02:54.892Z,3.80
2022-08-22T13:05:27.315Z,3.20
2022-08-22T13:08:02.390Z,3.67
2022-08-22T13:10:40.297Z,3.30
2022-08-22T13:13:12.795Z,3.57
2022-08-22T13:15:47.237Z,3.27
2022-08-22T13:18:29.847Z,3.60
2022-08-22T13:21:04.974Z,3.83
2022-08-22T13:23:39.800Z,3.20
2022-08-22T13:26:24.378Z,3.57
2022-08-22T13:29:24.698Z,3.50
2022-08-22T13:31:56.145Z,3.37
2022-08-22T13:34:40.170Z,3.47
2022-08-22T13:37:15.722Z,3.40
2022-08-22T13:39:46.816Z,4.00
2022-08-22T13:42:30.397Z,3.20
2022-08-22T13:45:02.528Z,3.83
2022-08-22T13:47:32.380Z,3.23
2022-08-22T13:50:10.170Z,3.10
2022-08-22T13:52:46.027Z,3.43
2022-08-22T13:55:27.649Z,3.43
2022-08-22T13:58:02.235Z,3.17
2022-08-22T14:01:08.734Z,3.43
2022-08-22T14:03:45.363Z,3.97
2022-08-22T14:06:38.372Z,3.30
2022-08-22T14:09:31.270Z,3.20
2022-08-22T14:12:12.120Z,3.50
2022-08-22T14:14:42.408Z,3.60
2022-08-22T14:17:16.432Z,3.63
2022-08-22T14:19:59.111Z,3.20
2022-08-22T14:22:32.299Z,3.37
2022-08-22T14:25:08.566Z,3.30
2022-08-22T14:27:39.705Z,3.80
2022-08-22T14:30:15.295Z,3.83
2022-08-22T14:32:48.293Z,3.53
2022-08-22T14:35:34.691Z,3.83
2022-08-22T14:38:30.213Z,3.60
2022-08-22T14:41:05.105Z,3.70
2022-08-22T14:43:51.464Z,3.47
2022-08-22T14:46:26.949Z,3.60
2022-08-22T14:49:25.291Z,4.00
2022-08-22T14:51:58.129Z,3.77
2022-08-22T14:54:29.202Z,4.40
2022-08-22T14:57:00.685Z,3.83
2022-08-22T14:59:37.610Z,3.70
2022-08-22T15:02:11.025Z,4.20
2022-08-22T15:04:41.483Z,3.77
2022-08-22T15:07:11.564Z,3.27
2022-08-22T15:09:44.083Z,3.40
2022-08-22T15:12:25.762Z,3.53
2022-08-22T15:14:57.329Z,3.60
2022-08-22T15:17:44.171Z,3.60
2022-08-22T15:20:27.655Z,3.80
2022-08-22T15:22:59.091Z,3.53
2022-08-22T15:25:31.264Z,3.40
2022-08-22T15:28:05.337Z,3.10
2022-08-22T15:30:44.234Z,3.50
2022-08-22T15:33:16.841Z,3.70
2022-08-22T15:35:47.201Z,3.47
2022-08-22T15:38:31.265Z,3.70
2022-08-22T15:41:31.412Z,3.30
2022-08-22T15:44:30.576Z,3.00
2022-08-22T15:47:04.715Z,3.70
2022-08-22T15:49:36.876Z,3.20
2022-08-22T15:52:21.856Z,3.80
2022-08-22T15:55:17.468Z,3.33
2022-08-22T15:57:59.699Z,3.80
2022-08-22T16:00:35.391Z,4.97
2022-08-22T16:03:08.218Z,3.37
2022-08-22T16:05:49.806Z,3.00
2022-08-22T16:08:26.147Z,3.27
2022-08-22T16:11:14.772Z,3.53
2022-08-22T16:13:45.435Z,3.10
2022-08-22T16:17:09.296Z,3.70
2022-08-22T16:19:38.209Z,3.33
2022-08-22T16:22:09.671Z,3.40
2022-08-22T16:25:00.962Z,3.40
2022-08-22T16:27:29.064Z,3.30
2022-08-22T16:30:14.220Z,3.20
2022-08-22T16:32:55.375Z,3.70
2022-08-22T16:36:09.036Z,3.30
2022-08-22T16:38:42.358Z,3.67
2022-08-22T16:41:26.730Z,3.90
2022-08-22T16:44:14.142Z,3.03
2022-08-22T16:46:46.081Z,3.23
2022-08-22T16:49:29.421Z,3.80
2022-08-22T16:52:34.598Z,3.17
2022-08-22T16:55:04.927Z,3.20
2022-08-22T16:57:54.430Z,3.43
2022-08-22T17:00:40.460Z,2.97
2022-08-22T17:03:14.347Z,3.30
2022-08-22T17:05:53.636Z,3.60
2022-08-22T17:08:35.363Z,3.50
2022-08-22T17:11:15.343Z,3.93
2022-08-22T17:14:04.466Z,3.20
2022-08-22T17:16:44.318Z,3.40
2022-08-22T17:19:32.286Z,3.13
2022-08-22T17:22:07.067Z,3.40
2022-08-22T17:24:41.296Z,3.43
2022-08-22T17:27:19.006Z,3.37
2022-08-22T17:30:00.401Z,3.33
2022-08-22T17:32:38.104Z,3.63
2022-08-22T17:35:17.867Z,3.50
2022-08-22T17:38:00.958Z,3.23
2022-08-22T17:40:38.547Z,3.87
2022-08-22T17:43:19.151Z,3.50
2022-08-22T17:46:00.332Z,3.80
2022-08-22T17:48:32.663Z,3.70
2022-08-22T17:51:11.716Z,3.50
2022-08-22T17:53:49.129Z,3.80
2022-08-22T17:56:22.420Z,3.50
2022-08-22T17:58:59.388Z,3.50
2022-08-22T18:01:43.502Z,3.70
2022-08-22T18:04:18.665Z,3.57
2022-08-22T18:06:55.533Z,3.20
2022-08-22T18:09:35.530Z,3.10
2022-08-22T18:12:08.855Z,3.07
2022-08-22T18:14:42.904Z,3.33
2022-08-22T18:17:19.372Z,3.87
2022-08-22T18:20:01.855Z,3.70
2022-08-22T18:22:34.287Z,3.60
2022-08-22T18:25:09.307Z,3.60
2022-08-22T18:27:44.155Z,3.20
2022-08-22T18:30:21.694Z,3.70
2022-08-22T18:32:56.493Z,3.70
2022-08-22T18:35:29.794Z,3.70
2022-08-22T18:38:03.797Z,3.83
2022-08-22T18:40:53.003Z,4.00
2022-08-22T18:43:26.602Z,3.50
2022-08-22T18:46:03.319Z,3.70
2022-08-22T18:48:54.362Z,4.10
2022-08-22T18:51:29.694Z,3.83
2022-08-22T18:54:20.567Z,3.60
2022-08-22T18:56:55.215Z,3.80
2022-08-22T18:59:39.615Z,4.20
2022-08-22T19:02:29.083Z,3.50
2022-08-22T19:05:21.638Z,3.40
2022-08-22T19:08:02.422Z,3.53
2022-08-22T19:10:46.134Z,3.40
2022-08-22T19:13:42.802Z,3.43
2022-08-22T19:16:36.200Z,3.40
2022-08-22T19:19:17.171Z,3.70
2022-08-22T19:22:22.400Z,3.83
2022-08-22T19:25:13.186Z,3.30
2022-08-22T19:27:44.560Z,3.70
2022-08-22T19:30:41.330Z,3.33
2022-08-22T19:33:25.621Z,3.67
2022-08-22T19:36:09.633Z,3.33
2022-08-22T19:38:56.390Z,3.63
2022-08-22T19:41:52.504Z,3.50
2022-08-22T19:44:37.502Z,3.10
2022-08-22T19:47:13.556Z,3.60
2022-08-22T19:49:46.590Z,3.33
2022-08-22T19:52:26.587Z,4.00
2022-08-22T19:55:12.020Z,3.70
2022-08-22T19:57:47.124Z,3.80
2022-08-22T20:00:18.519Z,3.93
2022-08-22T20:02:59.405Z,3.43
2022-08-22T20:05:37.693Z,3.73
2022-08-22T20:08:22.254Z,3.77
2022-08-22T20:11:08.966Z,4.03
2022-08-22T20:13:38.188Z,4.30
2022-08-22T20:16:17.068Z,3.67
2022-08-22T20:19:19.229Z,3.80
2022-08-22T20:21:54.755Z,3.80
2022-08-22T20:24:29.447Z,3.97
2022-08-22T20:27:14.021Z,3.53
2022-08-22T20:29:49.276Z,3.93
2022-08-22T20:32:20.075Z,4.60
2022-08-22T20:34:56.812Z,3.63
2022-08-22T20:37:40.246Z,3.53
2022-08-22T20:40:56.458Z,3.97
2022-08-22T20:43:17.434Z,4.70
2022-08-22T20:46:04.160Z,4.00
2022-08-22T20:48:37.289Z,4.30
2022-08-22T20:51:09.239Z,3.73
2022-08-22T20:53:37.623Z,4.57
2022-08-22T20:56:09.815Z,4.17
2022-08-22T20:58:40.523Z,4.23
2022-08-22T21:01:11.958Z,3.67
2022-08-22T21:03:44.161Z,4.03
2022-08-22T21:06:16.716Z,4.17
2022-08-22T21:08:46.905Z,3.80
2022-08-22T21:11:40.375Z,3.67
2022-08-22T21:14:19.730Z,4.10
2022-08-22T21:16:47.917Z,4.10
2022-08-22T21:19:20.056Z,4.10
2022-08-22T21:21:49.209Z,4.43
2022-08-22T21:24:17.737Z,3.73
2022-08-22T21:26:50.472Z,4.10
2022-08-22T21:29:23.415Z,3.80
2022-08-22T21:31:53.878Z,3.90
2022-08-22T21:34:30.600Z,4.07
2022-08-22T21:37:03.292Z,3.87
2022-08-22T21:39:36.220Z,3.60
2022-08-22T21:42:13.082Z,3.77
2022-08-22T21:44:42.461Z,4.00
2022-08-22T21:47:19.121Z,4.40
2022-08-22T21:50:25.698Z,4.00
2022-08-22T21:53:10.187Z,3.70
2022-08-22T21:55:42.935Z,3.53
2022-08-22T21:58:36.524Z,3.10
2022-08-22T22:01:29.149Z,3.77
2022-08-22T22:03:58.891Z,3.77
2022-08-22T22:06:27.838Z,3.83
2022-08-22T22:08:57.742Z,3.30
2022-08-22T22:11:25.569Z,3.70
2022-08-22T22:13:53.412Z,4.40
2022-08-22T22:16:26.477Z,4.27
2022-08-22T22:18:54.632Z,4.20
2022-08-22T22:21:22.666Z,3.70
2022-08-22T22:23:50.551Z,3.80
2022-08-22T22:26:20.927Z,4.53
2022-08-22T22:28:50.257Z,4.20
2022-08-22T22:31:18.536Z,4.10
2022-08-22T22:33:46.590Z,3.80
2022-08-22T22:36:19.238Z,3.90
2022-08-22T22:38:47.362Z,4.20
2022-08-22T22:41:15.398Z,3.90
2022-08-22T22:43:44.619Z,3.80
2022-08-22T22:46:12.459Z,4.23
2022-08-22T22:48:40.303Z,4.07
2022-08-22T22:51:09.751Z,3.80
2022-08-22T22:53:42.633Z,4.30
2022-08-22T22:56:14.316Z,4.30
2022-08-22T22:58:45.356Z,4.30
2022-08-22T23:01:18.672Z,4.60
2022-08-22T23:03:47.059Z,4.63
2022-08-22T23:06:16.749Z,4.27
2022-08-22T23:08:44.867Z,4.00
2022-08-22T23:11:14.005Z,4.00
2022-08-22T23:13:42.982Z,4.97
2022-08-22T23:16:14.387Z,4.17
2022-08-22T23:18:42.716Z,3.77
2022-08-22T23:21:12.156Z,3.83
2022-08-22T23:23:40.022Z,3.47
2022-08-22T23:26:08.197Z,4.10
2022-08-22T23:28:36.242Z,4.43
2022-08-22T23:31:14.354Z,4.43
2022-08-22T23:33:42.467Z,4.63
2022-08-22T23:36:12.751Z,3.90
2022-08-22T23:38:40.630Z,4.20
2022-08-22T23:41:10.020Z,4.13
2022-08-22T23:43:41.272Z,4.40
2022-08-22T23:46:09.198Z,3.93
2022-08-22T23:48:38.388Z,4.57
2022-08-22T23:51:06.630Z,3.80
2022-08-22T23:53:34.638Z,3.87
2022-08-22T23:56:11.014Z,4.37
2022-08-22T23:58:49.183Z,4.67
